Time;durP1;ratioP1;P1;durP2;ratioP2;P2;SDS_P1;SDS_P2;PMS_P1;PMS_P2;Temp;Humidity;BMP_temperature;BMP_pressure;BME280_temperature;BME280_humidity;BME280_pressure;Samples;Min_cycle;Max_cycle;Signal;HPM_P1;HPM_P2
2023/05/26 00:00:56;;;;;;;11.33;6.90;;;;;;;11.20;100.00;100984.31;4995879;28;20386;-65
2023/05/26 00:03:22;;;;;;;8.63;7.50;;;;;;;11.17;100.00;100983.63;5003640;28;20669;-65
2023/05/26 00:05:47;;;;;;;8.63;6.87;;;;;;;10.91;100.00;100988.94;5005687;28;20680;-65
2023/05/26 00:08:12;;;;;;;10.13;7.70;;;;;;;10.99;100.00;100991.22;5001807;28;20179;-65
2023/05/26 00:10:37;;;;;;;11.70;8.27;;;;;;;11.00;100.00;100989.47;5003201;28;20237;-65
2023/05/26 00:13:03;;;;;;;9.63;7.57;;;;;;;10.92;100.00;100985.47;5002719;28;20606;-64
2023/05/26 00:15:28;;;;;;;12.33;8.43;;;;;;;10.86;100.00;100987.47;5010838;28;20197;-65
2023/05/26 00:17:57;;;;;;;9.90;8.10;;;;;;;10.80;100.00;100983.41;5010941;28;20289;-65
2023/05/26 00:20:23;;;;;;;12.10;8.73;;;;;;;10.73;100.00;100982.84;5004578;28;20222;-66
2023/05/26 00:22:48;;;;;;;13.87;8.83;;;;;;;10.71;100.00;100986.38;5024775;28;20688;-66
2023/05/26 00:25:13;;;;;;;14.27;8.53;;;;;;;10.64;100.00;100983.19;5010647;28;20182;-66
2023/05/26 00:27:38;;;;;;;9.93;7.80;;;;;;;10.57;100.00;100980.06;5001440;28;20540;-65
2023/05/26 00:30:04;;;;;;;10.47;8.23;;;;;;;10.55;100.00;100979.28;4996808;28;20183;-65
2023/05/26 00:32:30;;;;;;;14.60;8.87;;;;;;;10.57;100.00;100971.50;5020550;28;20297;-64
2023/05/26 00:34:55;;;;;;;10.60;8.20;;;;;;;10.52;100.00;100971.69;5005031;28;20175;-65
2023/05/26 00:37:21;;;;;;;13.73;8.77;;;;;;;10.51;100.00;100976.91;5004180;28;20190;-66
2023/05/26 00:39:47;;;;;;;11.30;8.27;;;;;;;10.50;100.00;100973.47;5020935;28;20202;-66
2023/05/26 00:42:12;;;;;;;10.10;8.63;;;;;;;10.42;100.00;100971.22;4996273;28;20227;-66
2023/05/26 00:44:37;;;;;;;10.77;8.70;;;;;;;10.36;100.00;100974.03;5007022;28;20249;-66
2023/05/26 00:47:03;;;;;;;8.83;7.90;;;;;;;10.34;100.00;100970.66;4997559;28;20186;-65
2023/05/26 00:49:28;;;;;;;11.13;8.80;;;;;;;10.34;100.00;100976.66;5011244;28;20182;-65
2023/05/26 00:51:54;;;;;;;11.53;8.33;;;;;;;10.28;100.00;100966.59;5014221;28;20244;-64
2023/05/26 00:54:22;;;;;;;13.13;8.40;;;;;;;10.16;100.00;100972.22;5008626;28;20225;-64
2023/05/26 00:56:51;;;;;;;9.03;7.97;;;;;;;10.25;100.00;100971.03;5010006;28;20192;-65
2023/05/26 00:59:17;;;;;;;12.77;8.10;;;;;;;10.21;100.00;100969.44;5005295;28;20277;-65
2023/05/26 01:01:43;;;;;;;15.17;9.00;;;;;;;10.21;100.00;100964.31;5000944;28;20249;-64
2023/05/26 01:04:09;;;;;;;8.83;7.93;;;;;;;10.16;100.00;100975.63;4996564;28;20180;-65
2023/05/26 01:06:34;;;;;;;9.40;8.30;;;;;;;10.09;100.00;100966.47;5004920;28;20661;-63
2023/05/26 01:09:00;;;;;;;11.50;8.70;;;;;;;10.10;100.00;100967.31;4995227;28;20677;-64
2023/05/26 01:11:34;;;;;;;12.23;10.57;;;;;;;9.92;100.00;100963.69;5005811;28;20316;-64
2023/05/26 01:14:07;;;;;;;9.57;8.27;;;;;;;9.90;100.00;100965.47;5008758;28;20194;-63
2023/05/26 01:16:40;;;;;;;9.40;8.17;;;;;;;9.90;100.00;100968.06;5010705;28;20203;-63
2023/05/26 01:19:19;;;;;;;12.60;9.50;;;;;;;9.84;100.00;100964.81;5005340;28;20386;-64
2023/05/26 01:21:47;;;;;;;11.87;9.00;;;;;;;9.91;100.00;100968.03;5013558;28;20214;-64
2023/05/26 01:24:25;;;;;;;10.40;8.40;;;;;;;9.81;100.00;100964.97;5005801;28;20228;-64
2023/05/26 01:27:23;;;;;;;12.47;9.27;;;;;;;9.71;100.00;100958.47;5006250;28;20184;-64
2023/05/26 01:29:49;;;;;;;11.83;8.57;;;;;;;9.87;100.00;100963.03;5003247;28;20190;-63
2023/05/26 01:32:15;;;;;;;11.67;7.83;;;;;;;9.87;100.00;100966.44;5007988;28;20301;-64
2023/05/26 01:34:41;;;;;;;13.23;9.13;;;;;;;9.88;100.00;100968.13;5012423;28;20270;-64
2023/05/26 01:37:06;;;;;;;11.10;8.63;;;;;;;9.84;100.00;100972.53;5015235;28;20258;-64
2023/05/26 01:39:34;;;;;;;10.87;8.73;;;;;;;9.93;100.00;100968.78;5006360;28;20195;-64
2023/05/26 01:42:23;;;;;;;10.63;8.90;;;;;;;9.95;100.00;100969.56;5017831;28;20230;-64
2023/05/26 01:45:03;;;;;;;11.13;9.17;;;;;;;9.95;100.00;100963.59;5010390;28;20523;-66
2023/05/26 01:47:31;;;;;;;12.50;8.73;;;;;;;9.93;100.00;100965.38;5010249;28;20183;-64
2023/05/26 01:50:01;;;;;;;13.67;9.13;;;;;;;9.92;100.00;100964.53;5003699;28;20213;-62
2023/05/26 01:52:27;;;;;;;12.10;8.53;;;;;;;9.89;100.00;100963.84;5003620;28;20690;-65
2023/05/26 01:54:57;;;;;;;11.57;8.27;;;;;;;9.73;100.00;100955.84;5015189;28;20557;-65
2023/05/26 01:57:23;;;;;;;10.17;8.30;;;;;;;9.77;100.00;100955.66;5015197;28;20175;-65
2023/05/26 01:59:51;;;;;;;13.03;7.67;;;;;;;9.76;100.00;100960.88;5013853;28;20193;-65
2023/05/26 02:02:16;;;;;;;13.33;8.97;;;;;;;9.75;100.00;100948.91;5020116;28;20230;-65
2023/05/26 02:04:41;;;;;;;11.23;8.53;;;;;;;9.65;100.00;100954.41;5014951;28;20182;-65
2023/05/26 02:07:07;;;;;;;11.07;7.93;;;;;;;9.55;100.00;100953.09;5014645;28;20185;-65
2023/05/26 02:09:32;;;;;;;11.10;7.83;;;;;;;9.57;100.00;100958.16;5015249;28;20182;-65
2023/05/26 02:11:58;;;;;;;12.10;7.77;;;;;;;9.57;100.00;100951.28;5019179;28;20225;-65
2023/05/26 02:14:23;;;;;;;13.30;8.00;;;;;;;9.55;100.00;100957.38;5015465;28;20229;-65
2023/05/26 02:16:48;;;;;;;10.67;8.10;;;;;;;9.35;100.00;100958.91;5014276;28;20269;-64
2023/05/26 02:19:14;;;;;;;14.10;8.47;;;;;;;9.47;100.00;100955.91;5013281;28;20252;-65
2023/05/26 02:21:39;;;;;;;10.60;8.33;;;;;;;9.48;100.00;100957.59;5006412;28;20230;-64
2023/05/26 02:24:04;;;;;;;11.50;8.20;;;;;;;9.47;100.00;100960.22;5013427;28;20190;-65
2023/05/26 02:26:30;;;;;;;9.60;7.90;;;;;;;9.50;100.00;100955.81;5015129;28;20209;-66
2023/05/26 02:28:56;;;;;;;9.13;7.67;;;;;;;9.40;100.00;100963.88;5007676;28;20191;-66
2023/05/26 02:31:22;;;;;;;13.03;8.63;;;;;;;9.44;100.00;100961.16;5007936;28;20321;-64
2023/05/26 02:33:47;;;;;;;10.90;8.07;;;;;;;9.38;100.00;100958.81;5019161;28;20285;-65
2023/05/26 02:36:13;;;;;;;11.13;8.73;;;;;;;9.38;100.00;100961.38;5014035;28;20694;-65
2023/05/26 02:38:39;;;;;;;9.90;8.73;;;;;;;9.40;100.00;100959.59;5014491;28;20183;-65
2023/05/26 02:41:07;;;;;;;12.27;8.13;;;;;;;9.31;100.00;100959.94;5006287;28;20615;-65
2023/05/26 02:43:32;;;;;;;13.53;9.00;;;;;;;9.35;100.00;100959.78;5021224;28;20248;-65
2023/05/26 02:45:57;;;;;;;14.47;8.83;;;;;;;9.28;100.00;100958.31;5012506;28;20186;-65
2023/05/26 02:48:23;;;;;;;9.03;8.13;;;;;;;9.24;100.00;100961.88;5013394;28;20225;-66
2023/05/26 02:50:48;;;;;;;11.20;8.57;;;;;;;9.27;100.00;100963.50;5009404;28;20724;-65
2023/05/26 02:53:15;;;;;;;8.77;7.77;;;;;;;9.24;100.00;100959.31;5012699;28;20210;-63
2023/05/26 02:55:40;;;;;;;12.77;8.60;;;;;;;9.25;100.00;100948.13;5013735;28;20171;-65
2023/05/26 02:58:05;;;;;;;10.73;9.63;;;;;;;9.23;100.00;100952.50;5012380;28;20181;-65
2023/05/26 03:00:31;;;;;;;10.27;8.50;;;;;;;9.19;100.00;100948.34;4993759;28;20327;-64
2023/05/26 03:02:56;;;;;;;11.83;8.50;;;;;;;9.21;100.00;100951.72;5012721;28;20544;-64
2023/05/26 03:05:21;;;;;;;12.80;8.40;;;;;;;9.18;100.00;100954.41;5012250;28;20182;-64
2023/05/26 03:07:46;;;;;;;10.97;7.83;;;;;;;9.19;100.00;100956.91;5013817;28;20182;-65
2023/05/26 03:10:12;;;;;;;12.27;8.90;;;;;;;9.24;100.00;100961.03;5004598;28;20231;-65
2023/05/26 03:12:37;;;;;;;12.83;8.77;;;;;;;9.27;100.00;100958.38;5027622;28;20194;-65
2023/05/26 03:15:03;;;;;;;13.40;8.73;;;;;;;9.22;100.00;100958.53;5010892;28;20186;-65
2023/05/26 03:17:28;;;;;;;12.80;9.27;;;;;;;9.17;100.00;100955.28;5009534;28;20521;-64
2023/05/26 03:19:55;;;;;;;13.20;9.20;;;;;;;9.15;100.00;100955.34;5013598;28;20741;-64
2023/05/26 03:22:21;;;;;;;12.60;9.33;;;;;;;9.04;100.00;100950.56;5018825;28;20221;-65
2023/05/26 03:24:46;;;;;;;11.73;8.97;;;;;;;8.94;100.00;100944.06;5013546;28;20273;-65
2023/05/26 03:27:11;;;;;;;12.00;9.17;;;;;;;9.07;100.00;100949.63;5012768;28;20194;-65
2023/05/26 03:29:37;;;;;;;15.57;7.93;;;;;;;9.08;100.00;100943.59;5001866;28;20217;-65
2023/05/26 03:32:02;;;;;;;13.03;8.67;;;;;;;9.07;100.00;100941.94;4980281;28;20214;-65
2023/05/26 03:34:27;;;;;;;13.17;8.97;;;;;;;8.97;100.00;100938.84;5013299;28;20283;-64
2023/05/26 03:36:54;;;;;;;14.60;8.90;;;;;;;9.08;100.00;100941.03;5012829;28;20190;-65
2023/05/26 03:39:21;;;;;;;12.87;8.93;;;;;;;9.11;100.00;100947.78;5012093;28;20673;-64
2023/05/26 03:41:47;;;;;;;12.60;8.27;;;;;;;9.09;100.00;100957.28;5015867;28;20253;-65
2023/05/26 03:44:12;;;;;;;12.10;8.57;;;;;;;9.19;100.00;100949.19;5014819;28;20233;-65
2023/05/26 03:46:37;;;;;;;14.17;8.60;;;;;;;9.21;100.00;100954.28;5012195;28;20190;-64
2023/05/26 03:49:02;;;;;;;12.83;9.20;;;;;;;9.24;100.00;100949.03;5012017;28;20660;-64
2023/05/26 03:51:28;;;;;;;12.07;8.83;;;;;;;9.24;100.00;100953.31;5013779;28;20385;-64
2023/05/26 03:53:53;;;;;;;9.93;8.33;;;;;;;9.25;100.00;100949.88;5017302;28;20206;-64
2023/05/26 03:56:18;;;;;;;10.33;9.10;;;;;;;9.28;100.00;100949.75;5012044;28;20201;-64
2023/05/26 03:58:44;;;;;;;11.10;8.80;;;;;;;9.36;100.00;100951.19;5011625;28;20217;-64
2023/05/26 04:01:10;;;;;;;10.63;8.80;;;;;;;9.43;100.00;100953.53;5011260;28;20225;-64
2023/05/26 04:03:35;;;;;;;9.83;8.60;;;;;;;9.47;100.00;100955.91;5019528;28;20187;-64
2023/05/26 04:06:00;;;;;;;11.40;8.90;;;;;;;9.50;100.00;100952.38;5010491;28;20205;-64
2023/05/26 04:08:26;;;;;;;12.73;9.00;;;;;;;9.57;100.00;100950.44;5012915;28;20179;-65
2023/05/26 04:10:51;;;;;;;12.30;9.53;;;;;;;9.59;100.00;100964.06;5008598;28;20299;-65
2023/05/26 04:13:17;;;;;;;11.57;8.67;;;;;;;9.63;100.00;100963.88;5021453;28;20569;-65
2023/05/26 04:15:42;;;;;;;11.17;8.60;;;;;;;9.73;100.00;100971.28;5011972;28;20189;-65
2023/05/26 04:18:07;;;;;;;11.93;9.00;;;;;;;9.73;100.00;100968.72;5012212;28;20198;-64
2023/05/26 04:20:32;;;;;;;13.13;9.87;;;;;;;9.78;100.00;100964.22;5006008;28;20218;-64
2023/05/26 04:22:58;;;;;;;14.37;8.90;;;;;;;9.88;100.00;100969.88;5023906;28;20669;-64
2023/05/26 04:25:24;;;;;;;11.30;8.47;;;;;;;9.96;100.00;100972.97;5012006;28;20186;-64
2023/05/26 04:27:52;;;;;;;12.30;8.50;;;;;;;10.09;100.00;100970.78;5012818;28;20214;-64
2023/05/26 04:30:17;;;;;;;12.03;8.20;;;;;;;10.20;100.00;100978.91;4990931;28;20195;-64
2023/05/26 04:32:43;;;;;;;12.27;8.40;;;;;;;10.28;100.00;100963.16;5025414;28;20205;-64
2023/05/26 04:35:10;;;;;;;10.13;7.93;;;;;;;10.34;100.00;100965.50;5011990;28;20174;-64
2023/05/26 04:37:35;;;;;;;13.73;8.40;;;;;;;10.47;100.00;100965.91;5012612;28;20277;-64
2023/05/26 04:40:05;;;;;;;12.93;8.30;;;;;;;10.56;100.00;100962.94;5011909;28;20270;-64
2023/05/26 04:42:33;;;;;;;11.03;8.13;;;;;;;10.62;100.00;100965.25;5001128;28;20210;-64
2023/05/26 04:45:00;;;;;;;11.93;8.60;;;;;;;10.78;100.00;100965.47;5011638;28;20183;-65
2023/05/26 04:47:25;;;;;;;9.97;8.37;;;;;;;10.93;100.00;100966.56;5012292;28;20189;-64
2023/05/26 04:49:51;;;;;;;11.90;8.03;;;;;;;11.06;100.00;100971.19;5011881;28;20182;-65
2023/05/26 04:52:16;;;;;;;9.53;7.73;;;;;;;11.24;100.00;100962.69;5017454;28;20980;-64
2023/05/26 04:54:42;;;;;;;11.43;7.60;;;;;;;11.37;100.00;100962.97;5012034;28;20191;-63
2023/05/26 04:57:07;;;;;;;11.87;8.40;;;;;;;11.51;100.00;100962.38;5011592;28;20233;-64
2023/05/26 04:59:33;;;;;;;11.17;7.73;;;;;;;11.61;100.00;100968.78;5011718;28;20215;-64
2023/05/26 05:01:58;;;;;;;9.07;7.60;;;;;;;11.86;100.00;100966.84;5016444;28;20276;-65
2023/05/26 05:04:23;;;;;;;10.37;8.20;;;;;;;12.00;100.00;100969.63;5012640;28;20174;-64
2023/05/26 05:06:48;;;;;;;9.87;7.43;;;;;;;12.09;100.00;100965.78;5011695;28;20531;-64
2023/05/26 05:09:14;;;;;;;13.17;8.27;;;;;;;12.26;100.00;100965.00;5014232;28;20191;-64
2023/05/26 05:11:39;;;;;;;13.47;7.70;;;;;;;12.39;100.00;100965.22;5018121;28;20237;-64
2023/05/26 05:14:05;;;;;;;15.57;9.07;;;;;;;12.34;100.00;100962.88;5014285;28;20281;-65
2023/05/26 05:16:30;;;;;;;10.07;7.40;;;;;;;12.49;100.00;100971.63;5012302;28;20183;-64
2023/05/26 05:18:55;;;;;;;9.83;7.77;;;;;;;12.71;100.00;100979.16;4998958;28;20206;-64
2023/05/26 05:21:21;;;;;;;13.87;8.47;;;;;;;12.81;100.00;100976.94;5008943;28;20230;-64
2023/05/26 05:23:46;;;;;;;12.77;8.60;;;;;;;12.99;100.00;100979.53;5013334;28;20167;-65
2023/05/26 05:26:11;;;;;;;9.50;7.43;;;;;;;13.22;100.00;100980.91;5015032;28;20186;-65
2023/05/26 05:28:37;;;;;;;11.43;6.97;;;;;;;13.42;100.00;100992.84;5012063;28;20230;-65
2023/05/26 05:31:02;;;;;;;10.83;7.50;;;;;;;13.43;100.00;100980.75;4994307;28;20242;-65
2023/05/26 05:33:28;;;;;;;14.03;7.67;;;;;;;13.47;100.00;100980.50;5019794;28;20310;-65
2023/05/26 05:35:53;;;;;;;10.63;7.23;;;;;;;13.67;100.00;100984.63;5014914;28;20261;-65
2023/05/26 05:38:18;;;;;;;13.30;7.13;;;;;;;13.93;100.00;100992.72;5015554;28;20182;-65
2023/05/26 05:40:44;;;;;;;13.63;7.13;;;;;;;14.11;100.00;100996.03;5010644;28;20592;-66
2023/05/26 05:43:09;;;;;;;12.57;7.37;;;;;;;13.90;100.00;100989.47;5025046;28;20193;-65
2023/05/26 05:45:34;;;;;;;14.00;7.97;;;;;;;13.72;100.00;100989.56;5014830;28;20174;-65
2023/05/26 05:47:59;;;;;;;10.40;7.00;;;;;;;13.75;100.00;100991.13;5014944;28;20190;-65
2023/05/26 05:50:25;;;;;;;12.53;7.17;;;;;;;14.00;100.00;100988.91;5008176;28;20222;-65
2023/05/26 05:52:50;;;;;;;10.60;7.13;;;;;;;14.07;100.00;100986.78;5027686;28;20300;-65
2023/05/26 05:55:15;;;;;;;12.33;7.27;;;;;;;14.16;100.00;100988.84;5014865;28;20183;-64
2023/05/26 05:57:41;;;;;;;14.67;7.73;;;;;;;14.41;100.00;100989.25;5002755;28;20206;-63
2023/05/26 06:00:11;;;;;;;10.40;6.33;;;;;;;14.49;100.00;100992.25;4996634;28;20546;-64
2023/05/26 06:02:36;;;;;;;13.43;6.53;;;;;;;14.55;100.00;100998.81;5024236;28;20220;-65
2023/05/26 06:05:02;;;;;;;13.83;6.47;;;;;;;14.35;100.00;101004.22;5014607;28;20261;-65
2023/05/26 06:07:27;;;;;;;17.13;6.80;;;;;;;14.20;100.00;101002.47;5014681;28;20186;-65
2023/05/26 06:09:53;;;;;;;9.60;7.00;;;;;;;14.47;100.00;101004.44;5014421;28;20226;-65
2023/05/26 06:12:18;;;;;;;8.37;6.00;;;;;;;14.80;100.00;101008.66;5019748;28;20307;-65
2023/05/26 06:14:43;;;;;;;9.17;5.87;;;;;;;15.15;100.00;101018.69;5013395;28;20179;-65
2023/05/26 06:17:08;;;;;;;13.93;6.97;;;;;;;15.13;100.00;101015.34;5014255;28;20195;-66
2023/05/26 06:19:34;;;;;;;11.20;6.83;;;;;;;15.57;100.00;101009.25;5014433;28;20189;-64
2023/05/26 06:21:59;;;;;;;13.67;5.97;;;;;;;16.46;100.00;101020.22;5005595;28;20651;-64
2023/05/26 06:24:24;;;;;;;9.53;6.23;;;;;;;16.58;98.30;101022.00;5014830;28;20634;-65
2023/05/26 06:26:49;;;;;;;10.83;6.40;;;;;;;16.79;95.29;101016.31;5002876;28;20211;-66
2023/05/26 06:29:16;;;;;;;8.50;6.33;;;;;;;17.20;93.33;101023.13;5005999;28;20187;-65
2023/05/26 06:31:42;;;;;;;11.07;5.40;;;;;;;18.76;85.41;101023.50;5012507;28;20751;-66
2023/05/26 06:34:07;;;;;;;9.93;5.87;;;;;;;19.05;77.90;101028.34;5013859;28;20203;-65
2023/05/26 06:36:32;;;;;;;10.53;6.50;;;;;;;19.24;75.99;101030.34;5014227;28;20658;-65
2023/05/26 06:38:59;;;;;;;11.40;5.30;;;;;;;20.60;66.75;101036.19;5012880;28;20183;-64
2023/05/26 06:41:26;;;;;;;13.43;5.73;;;;;;;19.41;72.00;101032.53;5014117;28;20218;-64
2023/05/26 06:43:51;;;;;;;9.23;5.07;;;;;;;20.09;71.64;101042.88;5018043;28;20187;-65
2023/05/26 06:46:16;;;;;;;9.53;5.70;;;;;;;20.76;64.09;101043.63;5013392;28;20273;-64
2023/05/26 06:48:41;;;;;;;7.97;5.13;;;;;;;21.31;60.22;101039.09;5013876;28;20191;-64
2023/05/26 06:51:07;;;;;;;13.50;5.30;;;;;;;21.67;55.65;101043.00;5010476;28;20295;-65
2023/05/26 06:53:32;;;;;;;10.63;5.47;;;;;;;21.08;59.62;101041.88;5011643;28;20210;-64
2023/05/26 06:55:58;;;;;;;16.73;5.57;;;;;;;21.03;60.25;101038.84;5009947;28;20175;-65
2023/05/26 06:58:23;;;;;;;15.50;5.93;;;;;;;22.28;54.08;101037.69;5013293;28;20548;-65
2023/05/26 07:00:58;;;;;;;13.23;5.63;;;;;;;22.05;51.56;101049.28;4993096;28;20305;-65
2023/05/26 07:03:23;;;;;;;9.10;5.30;;;;;;;21.91;54.39;101047.06;5012698;28;20257;-65
2023/05/26 07:05:48;;;;;;;12.63;5.67;;;;;;;22.31;53.02;101042.69;5013103;28;20202;-65
2023/05/26 07:08:14;;;;;;;10.60;4.93;;;;;;;22.62;51.29;101048.63;5013031;28;20183;-65
2023/05/26 07:10:39;;;;;;;10.52;4.95;;;;;;;23.58;47.67;101052.13;5008009;28;20249;-64
2023/05/26 07:13:05;;;;;;;10.30;5.20;;;;;;;22.85;48.13;101045.72;5022470;28;20624;-65
2023/05/26 07:15:30;;;;;;;14.23;5.25;;;;;;;23.38;48.33;101049.56;5006590;28;20230;-65
2023/05/26 07:17:55;;;;;;;9.30;5.03;;;;;;;24.18;46.83;101057.72;5023197;28;20226;-65
2023/05/26 07:20:20;;;;;;;11.73;5.45;;;;;;;22.83;47.02;101063.38;5005793;28;20226;-64
2023/05/26 07:22:46;;;;;;;7.25;4.75;;;;;;;22.77;50.35;101056.88;5024282;28;20183;-65
2023/05/26 07:25:12;;;;;;;13.45;5.03;;;;;;;24.18;44.92;101062.16;5002021;28;20218;-64
2023/05/26 07:27:37;;;;;;;8.85;4.50;;;;;;;24.82;44.29;101059.44;5013141;28;20265;-64
2023/05/26 07:30:02;;;;;;;9.73;5.45;;;;;;;25.78;41.94;101062.88;4993713;28;20275;-64
2023/05/26 07:32:28;;;;;;;9.13;5.05;;;;;;;24.81;42.09;101061.22;4985550;28;20224;-64
2023/05/26 07:34:53;;;;;;;11.30;5.20;;;;;;;23.91;44.77;101065.63;5023529;28;20663;-64
2023/05/26 07:37:18;;;;;;;12.07;5.28;;;;;;;24.02;45.02;101063.63;5012856;28;20179;-65
2023/05/26 07:39:43;;;;;;;9.95;4.78;;;;;;;24.81;43.95;101057.78;5013278;28;20182;-64
2023/05/26 07:42:09;;;;;;;10.68;5.10;;;;;;;26.23;40.55;101053.78;5016980;28;20572;-64
2023/05/26 07:44:34;;;;;;;10.85;4.60;;;;;;;25.91;39.71;101059.78;5012618;28;20183;-64
2023/05/26 07:46:59;;;;;;;11.32;4.80;;;;;;;26.84;39.17;101063.19;5012555;28;20215;-64
2023/05/26 07:49:25;;;;;;;8.40;4.35;;;;;;;27.13;38.05;101056.50;5012574;28;20606;-64
2023/05/26 07:51:50;;;;;;;10.65;4.53;;;;;;;28.34;36.11;101062.34;5014440;28;20633;-65
2023/05/26 07:54:15;;;;;;;9.38;5.53;;;;;;;27.43;37.12;101057.59;5013542;28;20206;-64
2023/05/26 07:56:40;;;;;;;11.88;5.50;;;;;;;27.34;37.17;101064.69;5010942;28;20234;-68
2023/05/26 07:59:06;;;;;;;9.90;5.05;;;;;;;27.27;36.61;101053.16;5012463;28;20638;-71
2023/05/26 08:01:32;;;;;;;9.25;4.70;;;;;;;25.13;40.82;101061.56;5004224;28;20256;-69
2023/05/26 08:03:57;;;;;;;11.00;5.35;;;;;;;24.31;43.19;101061.78;5010258;28;20190;-69
2023/05/26 08:06:23;;;;;;;12.05;5.70;;;;;;;23.85;45.73;101052.13;5012162;28;20193;-69
2023/05/26 08:08:48;;;;;;;11.48;5.38;;;;;;;24.83;43.80;101047.91;5012608;28;20186;-75
2023/05/26 08:11:13;;;;;;;11.40;5.03;;;;;;;25.41;42.64;101053.53;5010856;28;20336;-61
2023/05/26 08:13:38;;;;;;;9.18;4.65;;;;;;;25.06;42.32;101050.06;5018406;28;20215;-61
2023/05/26 08:16:04;;;;;;;12.00;5.70;;;;;;;25.20;42.02;101059.97;5011825;28;20599;-61
2023/05/26 08:18:30;;;;;;;12.07;5.38;;;;;;;25.00;42.57;101048.84;5012273;28;20199;-60
2023/05/26 08:20:55;;;;;;;8.50;4.47;;;;;;;25.23;40.83;101058.84;5003522;28;20231;-60
2023/05/26 08:23:20;;;;;;;11.88;5.35;;;;;;;25.86;39.96;101051.53;5018295;28;20201;-60
2023/05/26 08:25:46;;;;;;;10.20;5.72;;;;;;;24.52;41.48;101050.13;5011115;28;20195;-60
2023/05/26 08:28:11;;;;;;;11.55;4.85;;;;;;;24.40;42.21;101054.78;5002088;28;20198;-60
2023/05/26 08:30:36;;;;;;;10.88;5.30;;;;;;;24.06;43.54;101047.59;4994320;28;20240;-60
2023/05/26 08:33:02;;;;;;;9.65;5.43;;;;;;;23.21;45.70;101038.06;5022711;28;20222;-60
2023/05/26 08:35:29;;;;;;;12.00;5.90;;;;;;;23.82;45.29;101035.81;5000560;28;20179;-59
2023/05/26 08:37:54;;;;;;;14.32;5.93;;;;;;;24.78;42.58;101040.50;5011750;28;20533;-60
2023/05/26 08:40:19;;;;;;;10.30;5.45;;;;;;;26.01;40.01;101034.13;5003742;28;20189;-60
2023/05/26 08:42:48;;;;;;;10.43;5.40;;;;;;;24.92;40.44;101040.91;5024100;28;20240;-59
2023/05/26 08:45:14;;;;;;;8.45;4.82;;;;;;;24.74;41.76;101039.13;5011565;28;20204;-60
2023/05/26 08:47:41;;;;;;;12.32;5.57;;;;;;;24.74;41.20;101033.88;5011783;28;20681;-60
2023/05/26 08:50:08;;;;;;;10.45;4.80;;;;;;;24.88;40.52;101032.50;4996572;28;20623;-59
2023/05/26 08:52:36;;;;;;;9.95;5.00;;;;;;;24.83;41.49;101029.50;5026106;28;20563;-60
2023/05/26 08:55:01;;;;;;;10.00;5.57;;;;;;;24.56;41.42;101030.44;5007844;28;20191;-61
2023/05/26 08:57:30;;;;;;;15.00;5.18;;;;;;;24.87;41.18;101020.34;5002364;28;20293;-60
2023/05/26 08:59:55;;;;;;;8.32;5.03;;;;;;;25.22;39.90;101023.81;5008422;28;20178;-59
2023/05/26 09:02:20;;;;;;;10.93;5.53;;;;;;;24.99;41.06;101026.13;5007903;28;20686;-58
2023/05/26 09:04:46;;;;;;;10.20;5.38;;;;;;;26.30;38.54;101024.13;5011102;28;20186;-59
2023/05/26 09:07:12;;;;;;;12.88;5.05;;;;;;;25.28;39.73;101033.69;5011288;28;20179;-61
2023/05/26 09:09:37;;;;;;;10.95;5.18;;;;;;;25.16;40.22;101036.78;5011111;28;20230;-59
2023/05/26 09:12:09;;;;;;;12.70;5.07;;;;;;;25.87;38.97;101037.38;5013526;28;20237;-59
2023/05/26 09:14:35;;;;;;;12.63;4.55;;;;;;;26.72;38.68;101031.81;5011207;28;20217;-60
2023/05/26 09:17:02;;;;;;;12.80;5.15;;;;;;;26.82;37.48;101044.88;5009291;28;20174;-60
2023/05/26 09:19:28;;;;;;;9.68;4.70;;;;;;;25.54;39.08;101038.13;5011180;28;20178;-58
2023/05/26 09:21:54;;;;;;;10.45;5.38;;;;;;;24.28;42.33;101043.69;5004816;28;20765;-60
2023/05/26 09:24:22;;;;;;;10.00;4.75;;;;;;;23.13;46.05;101041.34;5002961;28;20321;-59
2023/05/26 09:26:49;;;;;;;13.98;6.13;;;;;;;23.13;49.61;101036.09;5004583;28;20265;-59
2023/05/26 09:29:15;;;;;;;10.18;5.18;;;;;;;23.23;47.74;101041.34;5000857;28;20552;-59
2023/05/26 09:31:48;;;;;;;9.68;4.65;;;;;;;23.40;46.56;101049.44;5009597;28;20277;-59
2023/05/26 09:34:15;;;;;;;11.93;5.30;;;;;;;23.09;46.93;101037.34;5007666;28;20203;-59
2023/05/26 09:36:41;;;;;;;14.37;5.40;;;;;;;21.80;53.14;101044.53;5011081;28;20589;-58
2023/05/26 09:39:12;;;;;;;9.67;5.20;;;;;;;21.16;56.23;101042.06;5006814;28;20188;-60
2023/05/26 09:41:42;;;;;;;10.87;5.33;;;;;;;23.34;48.01;101033.31;5013546;28;20317;-60
2023/05/26 09:44:18;;;;;;;9.47;4.53;;;;;;;24.65;42.46;101038.25;5013923;28;20191;-60
2023/05/26 09:46:45;;;;;;;10.38;5.10;;;;;;;25.90;38.78;101039.69;5009509;28;20180;-60
2023/05/26 09:49:12;;;;;;;8.00;4.07;;;;;;;25.58;40.27;101031.53;5009557;28;20171;-60
2023/05/26 09:51:39;;;;;;;9.15;4.45;;;;;;;25.94;39.28;101036.56;5010086;28;20280;-62
2023/05/26 09:54:04;;;;;;;11.90;4.78;;;;;;;26.05;38.72;101040.72;5011014;28;20230;-61
2023/05/26 09:56:33;;;;;;;12.65;4.57;;;;;;;26.45;38.01;101032.19;5010729;28;20219;-60
2023/05/26 09:59:01;;;;;;;11.05;4.30;;;;;;;27.57;35.44;101034.91;5011328;28;20270;-60
2023/05/26 10:01:29;;;;;;;8.90;4.38;;;;;;;28.10;34.83;101032.47;5011759;28;20217;-60
2023/05/26 10:03:55;;;;;;;8.77;4.15;;;;;;;28.74;34.18;101027.78;5014207;28;20262;-61
2023/05/26 10:06:21;;;;;;;10.35;4.40;;;;;;;29.95;31.00;101032.78;5005769;28;20267;-61
2023/05/26 10:08:52;;;;;;;9.60;4.28;;;;;;;28.81;31.76;101031.38;5010131;28;20183;-61
2023/05/26 10:11:20;;;;;;;10.73;4.30;;;;;;;27.92;31.97;101019.50;5009021;28;20230;-60
2023/05/26 10:13:46;;;;;;;8.10;4.00;;;;;;;25.62;34.30;101037.31;5015187;28;20195;-59
2023/05/26 10:16:11;;;;;;;10.98;4.47;;;;;;;24.43;36.14;101036.91;5008503;28;20540;-70
2023/05/26 10:18:37;;;;;;;8.20;3.85;;;;;;;23.13;39.47;101022.16;5013470;28;20203;-75
2023/05/26 10:21:05;;;;;;;8.20;4.03;;;;;;;24.91;37.87;101016.41;5005712;28;20638;-66
2023/05/26 10:23:47;;;;;;;10.48;3.92;;;;;;;25.96;36.89;101014.50;5021441;28;20182;-66
2023/05/26 10:26:23;;;;;;;9.02;3.83;;;;;;;26.18;36.54;101005.97;5013508;28;20190;-66
2023/05/26 10:28:56;;;;;;;11.52;4.45;;;;;;;26.55;34.71;101017.00;5007973;28;20206;-66
2023/05/26 10:31:29;;;;;;;18.80;6.55;;;;;;;25.49;38.82;101015.88;5005989;28;20228;-63
2023/05/26 10:33:56;;;;;;;16.33;6.10;;;;;;;24.98;39.56;101000.78;5011924;28;20206;-63
2023/05/26 10:36:21;;;;;;;14.65;4.95;;;;;;;25.17;40.23;101012.91;5005634;28;20256;-62
2023/05/26 10:38:49;;;;;;;8.50;4.60;;;;;;;24.86;39.73;101009.94;5004240;28;20187;-64
2023/05/26 10:41:29;;;;;;;10.57;4.78;;;;;;;23.46;42.96;101006.84;5011468;28;20237;-65
2023/05/26 10:43:55;;;;;;;11.80;4.78;;;;;;;22.86;46.20;101003.59;5018305;28;20178;-64
2023/05/26 10:46:20;;;;;;;9.82;4.80;;;;;;;22.20;48.17;101006.94;5012220;28;20552;-65
2023/05/26 10:48:57;;;;;;;10.55;5.07;;;;;;;22.39;53.57;101004.34;5012869;28;20226;-63
2023/05/26 10:51:31;;;;;;;8.20;4.33;;;;;;;22.39;49.22;101009.59;5013720;28;20225;-63
2023/05/26 10:53:57;;;;;;;11.87;5.10;;;;;;;21.75;50.53;101008.28;5012067;28;20212;-63
2023/05/26 10:56:35;;;;;;;12.50;4.80;;;;;;;21.52;53.21;101013.72;5012216;28;20647;-66
2023/05/26 10:59:02;;;;;;;8.97;4.80;;;;;;;21.58;52.83;100997.50;5012852;28;20213;-64
2023/05/26 11:01:29;;;;;;;11.43;4.43;;;;;;;21.10;52.41;101014.63;4991843;28;20230;-65
2023/05/26 11:03:57;;;;;;;10.43;4.27;;;;;;;21.11;55.62;101000.59;5010657;28;20183;-64
2023/05/26 11:06:58;;;;;;;10.13;4.23;;;;;;;21.10;52.28;100995.50;5009918;28;20183;-65
2023/05/26 11:09:26;;;;;;;12.20;5.33;;;;;;;21.23;53.96;100995.28;4940139;29;20200;-65
2023/05/26 11:11:54;;;;;;;11.93;4.87;;;;;;;21.01;52.70;100999.72;4921560;29;20796;-65
2023/05/26 11:14:24;;;;;;;10.30;5.13;;;;;;;20.94;54.54;100999.41;4943431;29;20652;-65